createdAt,value
2023-03-22T00:00:39.564Z,31.30
2023-03-22T00:03:08.062Z,33.80
2023-03-22T00:05:37.153Z,29.40
2023-03-22T00:08:24.913Z,26.10
2023-03-22T00:10:55.716Z,29.30
2023-03-22T00:13:25.217Z,28.00
2023-03-22T00:15:55.572Z,32.20
2023-03-22T00:18:31.843Z,29.10
2023-03-22T00:21:00.750Z,35.20
2023-03-22T00:23:29.356Z,28.40
2023-03-22T00:25:57.949Z,35.90
2023-03-22T00:28:26.223Z,38.70
2023-03-22T00:30:59.308Z,33.40
2023-03-22T00:33:30.524Z,30.90
2023-03-22T00:36:08.843Z,28.40
2023-03-22T00:38:44.791Z,30.90
2023-03-22T00:43:41.906Z,28.50
2023-03-22T00:46:10.862Z,29.10
2023-03-22T00:48:39.485Z,30.60
2023-03-22T00:51:08.531Z,26.40
2023-03-22T00:53:40.528Z,25.80
2023-03-22T00:56:10.847Z,25.10
2023-03-22T00:59:18.040Z,28.20
2023-03-22T01:01:46.945Z,30.30
2023-03-22T01:04:18.185Z,29.30
2023-03-22T01:06:47.273Z,33.90
2023-03-22T01:09:15.517Z,27.50
2023-03-22T01:11:43.800Z,30.10
2023-03-22T01:14:14.134Z,29.90
2023-03-22T01:16:42.226Z,28.50
2023-03-22T01:19:10.788Z,26.10
2023-03-22T01:21:39.216Z,32.50
2023-03-22T01:24:07.466Z,27.90
2023-03-22T01:26:35.917Z,26.80
2023-03-22T01:29:03.987Z,26.40
2023-03-22T01:31:32.240Z,26.50
2023-03-22T01:34:00.237Z,25.50
2023-03-22T01:36:28.833Z,29.60
2023-03-22T01:38:56.973Z,25.60
2023-03-22T01:41:25.538Z,25.70
2023-03-22T01:44:16.996Z,28.50
2023-03-22T01:46:46.713Z,29.50
2023-03-22T01:49:36.384Z,25.00
2023-03-22T01:52:07.446Z,27.90
2023-03-22T01:54:55.676Z,24.90
2023-03-22T01:57:46.960Z,27.20
2023-03-22T02:00:22.545Z,29.10
2023-03-22T02:03:03.538Z,23.20
2023-03-22T02:05:37.307Z,23.90
2023-03-22T02:08:09.257Z,25.40
2023-03-22T02:10:57.519Z,21.30
2023-03-22T02:13:42.458Z,24.50
2023-03-22T02:16:53.657Z,28.90
2023-03-22T02:19:32.371Z,23.20
2023-03-22T02:22:40.185Z,25.10
2023-03-22T02:25:14.269Z,21.40
2023-03-22T02:28:11.922Z,21.30
2023-03-22T02:31:02.886Z,19.50
2023-03-22T02:33:59.402Z,20.60
2023-03-22T02:36:47.296Z,22.20
2023-03-22T02:39:36.215Z,22.40
2023-03-22T02:42:35.817Z,23.30
2023-03-22T02:47:41.552Z,21.60
2023-03-22T02:50:30.086Z,23.10
2023-03-22T02:53:13.546Z,23.40
2023-03-22T02:55:59.692Z,22.50
2023-03-22T02:58:46.039Z,24.00
2023-03-22T03:01:30.493Z,19.40
2023-03-22T03:04:00.188Z,22.60
2023-03-22T03:06:31.170Z,20.50
2023-03-22T03:09:05.296Z,20.00
2023-03-22T03:11:36.703Z,21.20
2023-03-22T03:14:05.849Z,21.00
2023-03-22T03:16:37.094Z,20.90
2023-03-22T03:19:20.385Z,23.20
2023-03-22T03:22:29.861Z,22.50
2023-03-22T03:25:23.098Z,21.20
2023-03-22T03:27:59.362Z,19.30
2023-03-22T03:30:41.363Z,19.40
2023-03-22T03:33:17.006Z,22.60
2023-03-22T03:35:51.143Z,21.30
2023-03-22T03:38:28.416Z,24.20
2023-03-22T03:41:09.264Z,22.00
2023-03-22T03:43:38.407Z,20.20
2023-03-22T03:46:08.820Z,20.80
2023-03-22T03:48:38.387Z,19.50
2023-03-22T03:51:06.699Z,17.30
2023-03-22T03:53:37.029Z,23.30
2023-03-22T03:56:06.180Z,22.00
2023-03-22T03:58:39.004Z,17.70
2023-03-22T04:01:07.597Z,18.60
2023-03-22T04:04:05.242Z,19.20
2023-03-22T04:06:46.009Z,23.00
2023-03-22T04:09:18.992Z,21.10
2023-03-22T04:11:52.830Z,18.70
2023-03-22T04:14:21.129Z,19.30
2023-03-22T04:16:50.332Z,19.30
2023-03-22T04:19:22.510Z,24.60
2023-03-22T04:21:53.256Z,24.10
2023-03-22T04:24:21.972Z,23.60
2023-03-22T04:26:52.771Z,21.50
2023-03-22T04:29:36.394Z,43.00
2023-03-22T04:32:23.044Z,23.20
2023-03-22T04:34:52.382Z,20.70
2023-03-22T04:37:24.606Z,21.70
2023-03-22T04:40:22.334Z,18.60
2023-03-22T04:43:20.102Z,19.60
2023-03-22T04:45:55.126Z,20.70
2023-03-22T04:48:28.085Z,20.00
2023-03-22T04:50:57.265Z,22.80
2023-03-22T04:53:27.962Z,20.50
2023-03-22T04:56:00.137Z,20.90
2023-03-22T04:58:30.604Z,18.50
2023-03-22T05:00:58.917Z,18.90
2023-03-22T05:03:28.406Z,18.40
2023-03-22T05:05:59.042Z,21.20
2023-03-22T05:08:32.540Z,21.80
2023-03-22T05:11:13.232Z,18.40
2023-03-22T05:13:42.480Z,22.20
2023-03-22T05:16:10.943Z,21.30
2023-03-22T05:18:47.199Z,18.40
2023-03-22T05:21:16.870Z,23.40
2023-03-22T05:23:45.869Z,21.70
2023-03-22T05:26:15.940Z,20.20
2023-03-22T05:28:46.074Z,20.20
2023-03-22T05:31:34.986Z,19.80
2023-03-22T05:34:08.283Z,17.30
2023-03-22T05:36:39.147Z,18.90
2023-03-22T05:39:17.519Z,20.70
2023-03-22T05:41:46.445Z,16.70
2023-03-22T05:44:14.828Z,17.80
2023-03-22T05:46:52.241Z,15.50
2023-03-22T05:49:32.500Z,18.30
2023-03-22T05:52:06.545Z,17.80
2023-03-22T05:54:57.372Z,17.20
2023-03-22T05:57:26.616Z,20.20
2023-03-22T05:59:55.467Z,18.00
2023-03-22T06:02:28.400Z,16.20
2023-03-22T06:05:00.251Z,20.00
2023-03-22T06:07:28.993Z,20.00
2023-03-22T06:10:01.774Z,17.50
2023-03-22T06:12:32.962Z,21.40
2023-03-22T06:15:08.264Z,17.70
2023-03-22T06:17:42.512Z,18.50
2023-03-22T06:20:17.875Z,18.10
2023-03-22T06:22:53.577Z,19.00
2023-03-22T06:25:21.518Z,20.10
2023-03-22T06:27:52.511Z,17.90
2023-03-22T06:30:22.347Z,15.80
2023-03-22T06:33:13.843Z,16.90
2023-03-22T06:35:44.465Z,16.60
2023-03-22T06:38:15.401Z,17.90
2023-03-22T06:40:44.040Z,16.00
2023-03-22T06:43:12.543Z,15.00
2023-03-22T06:45:47.836Z,14.80
2023-03-22T06:48:17.165Z,20.50
2023-03-22T06:51:12.587Z,15.90
2023-03-22T06:53:43.191Z,19.20
2023-03-22T06:56:12.778Z,16.30
2023-03-22T06:58:49.164Z,15.90
2023-03-22T07:01:18.062Z,18.70
2023-03-22T07:03:46.225Z,17.20
2023-03-22T07:06:16.523Z,16.10
2023-03-22T07:08:47.175Z,18.90
2023-03-22T07:11:17.573Z,17.20
2023-03-22T07:13:49.102Z,17.90
2023-03-22T07:16:20.425Z,17.90
2023-03-22T07:19:02.535Z,17.10
2023-03-22T07:21:30.934Z,17.20
2023-03-22T07:24:01.911Z,16.60
2023-03-22T07:26:30.972Z,15.60
2023-03-22T07:29:03.983Z,18.30
2023-03-22T07:31:36.623Z,17.10
2023-03-22T07:34:12.069Z,16.00
2023-03-22T07:37:03.142Z,18.50
2023-03-22T07:39:36.399Z,17.20
2023-03-22T07:42:05.725Z,15.90
2023-03-22T07:44:54.283Z,16.10
2023-03-22T07:47:40.092Z,20.10
2023-03-22T07:50:29.738Z,16.30
2023-03-22T07:52:58.152Z,18.00
2023-03-22T07:55:26.681Z,14.70
2023-03-22T07:57:55.147Z,14.50
2023-03-22T08:00:24.215Z,22.50
2023-03-22T08:03:02.597Z,17.00
2023-03-22T08:08:17.627Z,14.60
2023-03-22T08:10:50.835Z,14.90
2023-03-22T08:13:19.380Z,17.20
2023-03-22T08:15:47.593Z,18.90
2023-03-22T08:18:16.050Z,22.00
2023-03-22T08:20:45.788Z,14.40
2023-03-22T08:23:19.072Z,12.70
2023-03-22T08:26:27.484Z,13.90
2023-03-22T08:30:32.556Z,12.80
2023-03-22T08:33:01.070Z,15.20
2023-03-22T08:35:29.697Z,22.50
2023-03-22T08:37:58.008Z,14.70
2023-03-22T08:40:32.043Z,15.10
2023-03-22T08:43:04.139Z,11.10
2023-03-22T08:45:32.065Z,12.30
2023-03-22T08:48:06.815Z,11.50
2023-03-22T08:50:45.870Z,14.90
2023-03-22T08:53:23.220Z,11.50
2023-03-22T08:56:02.372Z,9.80
2023-03-22T08:58:52.329Z,13.20
2023-03-22T09:01:31.350Z,11.90
2023-03-22T09:04:05.853Z,16.20
2023-03-22T09:06:34.299Z,10.30
2023-03-22T09:09:04.330Z,9.50
2023-03-22T09:11:34.645Z,8.10
2023-03-22T09:14:02.857Z,7.60
2023-03-22T09:16:31.769Z,8.10
2023-03-22T09:19:01.706Z,8.00
2023-03-22T09:21:30.046Z,7.80
2023-03-22T09:24:07.590Z,8.20
2023-03-22T09:26:46.774Z,7.80
2023-03-22T09:29:16.757Z,7.10
2023-03-22T09:31:49.025Z,12.60
2023-03-22T09:34:19.479Z,9.00
2023-03-22T09:36:47.573Z,8.20
2023-03-22T09:39:17.819Z,8.20
2023-03-22T09:41:48.850Z,9.10
2023-03-22T09:44:26.492Z,6.60
2023-03-22T09:46:55.825Z,9.60
2023-03-22T09:49:26.980Z,12.80
2023-03-22T09:51:55.035Z,10.40
2023-03-22T09:54:27.837Z,19.30
2023-03-22T09:57:02.563Z,18.40
2023-03-22T10:00:00.886Z,10.70
2023-03-22T10:02:55.692Z,10.20
2023-03-22T10:05:30.439Z,9.40
2023-03-22T10:08:52.406Z,9.90
2023-03-22T10:11:48.136Z,7.30
2023-03-22T10:14:38.291Z,8.10
2023-03-22T10:17:16.701Z,7.70
2023-03-22T10:20:00.161Z,7.10
2023-03-22T10:22:31.446Z,7.20
2023-03-22T10:24:59.562Z,10.30
2023-03-22T10:27:29.745Z,8.60
2023-03-22T10:30:07.652Z,7.20
2023-03-22T10:32:56.642Z,6.70
2023-03-22T10:35:25.362Z,6.90
2023-03-22T10:37:54.993Z,10.50
2023-03-22T10:40:27.551Z,6.80
2023-03-22T10:43:37.963Z,6.20
2023-03-22T10:46:08.220Z,7.10
2023-03-22T10:48:39.577Z,8.50
2023-03-22T10:51:07.674Z,7.60
2023-03-22T10:53:40.931Z,8.00
2023-03-22T10:56:12.838Z,6.80
2023-03-22T10:58:47.660Z,7.50
2023-03-22T11:01:25.259Z,8.30
2023-03-22T11:03:57.190Z,9.80
2023-03-22T11:06:27.327Z,8.70
2023-03-22T11:09:03.633Z,8.00
2023-03-22T11:11:36.719Z,10.40
2023-03-22T11:14:07.649Z,7.30
2023-03-22T11:16:54.817Z,7.60
2023-03-22T11:19:28.773Z,8.60
2023-03-22T11:21:57.529Z,13.50
2023-03-22T11:24:31.385Z,7.80
2023-03-22T11:27:06.391Z,7.30
2023-03-22T11:30:22.911Z,8.90
2023-03-22T11:33:19.732Z,6.50
2023-03-22T11:35:54.048Z,8.80
2023-03-22T11:38:44.921Z,11.10
2023-03-22T11:41:20.607Z,8.10
2023-03-22T11:43:56.919Z,6.80
2023-03-22T11:46:25.426Z,13.30
2023-03-22T11:49:00.780Z,10.60
2023-03-22T11:51:37.601Z,7.40
2023-03-22T11:54:09.373Z,6.80
2023-03-22T11:56:41.529Z,5.70
2023-03-22T11:59:16.911Z,9.10
2023-03-22T12:01:49.020Z,9.20
2023-03-22T12:04:22.926Z,8.70
2023-03-22T12:06:54.362Z,10.20
2023-03-22T12:09:36.799Z,10.70
2023-03-22T12:12:17.948Z,11.30
2023-03-22T12:15:12.541Z,9.10
2023-03-22T12:17:44.100Z,11.00
2023-03-22T12:20:19.908Z,7.90
2023-03-22T12:25:32.468Z,9.40
2023-03-22T12:28:16.363Z,12.30
2023-03-22T12:30:47.063Z,7.20
2023-03-22T12:33:38.887Z,8.80
2023-03-22T12:36:07.170Z,7.70
2023-03-22T12:38:39.888Z,10.70
2023-03-22T12:41:14.988Z,10.00
2023-03-22T12:43:58.998Z,7.40
2023-03-22T12:46:29.485Z,8.20
2023-03-22T12:49:01.727Z,11.90
2023-03-22T12:54:02.270Z,8.50
2023-03-22T12:56:35.836Z,9.50
2023-03-22T12:59:08.522Z,7.90
2023-03-22T13:02:07.101Z,9.60
2023-03-22T13:07:15.389Z,7.70
2023-03-22T13:09:45.225Z,8.50
2023-03-22T13:12:19.408Z,9.10
2023-03-22T13:14:56.730Z,9.10
2023-03-22T13:17:25.936Z,14.80
2023-03-22T13:20:11.627Z,8.50
2023-03-22T13:22:45.822Z,10.20
2023-03-22T13:25:17.242Z,12.20
2023-03-22T13:27:46.262Z,9.00
2023-03-22T13:30:21.742Z,9.40
2023-03-22T13:33:13.834Z,9.00
2023-03-22T13:35:45.127Z,10.10
2023-03-22T13:38:26.052Z,12.20
2023-03-22T13:41:03.704Z,9.50
2023-03-22T13:43:55.115Z,14.50
2023-03-22T13:46:23.251Z,10.40
2023-03-22T13:48:54.145Z,12.80
2023-03-22T13:51:25.738Z,18.80
2023-03-22T13:54:14.327Z,10.80
2023-03-22T13:56:44.608Z,9.50
2023-03-22T13:59:21.472Z,10.90
2023-03-22T14:02:11.026Z,10.10
2023-03-22T14:04:44.236Z,9.80
2023-03-22T14:07:25.839Z,10.00
2023-03-22T14:10:03.424Z,10.60
2023-03-22T14:15:21.883Z,16.00
2023-03-22T14:18:15.625Z,15.00
2023-03-22T14:20:44.171Z,11.00
